»·PEaware :: N143VT KRNO-KOTH

N143VT :: KRNO-KOTH

FLIGHT INFORMATION

Flight Status: Arrived
Operator: Privately registered:
United States
More flights under this callsign
Pilot: Anonymous 16492 (16492)
Aircraft: ECLIPSE 500
(EA50)
More flights by this aircraft type
Origin: KRNO Reno/Tahoe Intl
United States
Destination: KOTH North Bend Mun
United States
More flights between these airports :: More routes between these airports
Route: +PVINE3 HALLE V452 LMT V122 OED OLINE
File this flight plan on PilotEdge
Remarks:
Altitude:
(Current/Filed)
28,000ft
Speed:
(Current/Filed)
350kts
Departed: 21-Jun-18 06:34 PM
Arrived: 21-Jun-18 08:00 PM
Distance/Time
Traveled:
309nm/1:26
Distance/Time
To Go:
Arrived

Flight Plot

Page will automatically refresh every two minutes.

Flight plan parsing failed; only flown route is shown


Map Options




Map Legend


Flown Route
Filed Route
Departure Airport
Arrival Airport
Navaid (VOR, NDB)
Fix

Horizontal Profiles

Position Reports

Time Latitude Longitude Heading Altitude Ground
Speed
21-Jun-18 18:14 39.504854 -119.765292 275 4418ft 0kts
21-Jun-18 18:15 39.504854 -119.765292 275 4418ft 0kts
21-Jun-18 18:16 39.504854 -119.765292 275 4418ft 0kts
21-Jun-18 18:17 39.504854 -119.765292 275 4418ft 0kts
21-Jun-18 18:18 39.504854 -119.765292 275 4418ft 0kts
21-Jun-18 18:19 39.504854 -119.765292 275 4418ft 0kts
21-Jun-18 18:20 39.504854 -119.765292 275 4418ft 0kts
21-Jun-18 18:21 39.504854 -119.765292 275 4418ft 0kts
21-Jun-18 18:22 39.504854 -119.765292 275 4418ft 0kts
21-Jun-18 18:23 39.504854 -119.765292 275 4418ft 0kts
21-Jun-18 18:24 39.504854 -119.765292 275 4418ft 0kts
21-Jun-18 18:25 39.504854 -119.765292 275 4418ft 0kts
21-Jun-18 18:26 39.504785 -119.765306 132 4418ft 0kts
21-Jun-18 18:27 39.504419 -119.765111 261 4418ft 7kts
21-Jun-18 18:28 39.504406 -119.765524 263 4418ft 5kts
21-Jun-18 18:29 39.501230 -119.765776 180 4418ft 11kts
21-Jun-18 18:30 39.496740 -119.765181 178 4418ft 7kts
21-Jun-18 18:31 39.491966 -119.765193 176 4418ft 27kts
21-Jun-18 18:32 39.489241 -119.765696 261 4418ft 0kts
21-Jun-18 18:33 39.489241 -119.765696 261 4418ft 0kts
21-Jun-18 18:34 39.493238 -119.766801 358 4418ft 66kts
21-Jun-18 18:35 39.524850 -119.765568 356 5072ft 154kts
21-Jun-18 18:36 39.572549 -119.764731 357 6958ft 179kts
21-Jun-18 18:37 39.622995 -119.764584 350 9020ft 185kts
21-Jun-18 18:38 39.667348 -119.797505 328 10976ft 188kts
21-Jun-18 18:39 39.714219 -119.829192 331 12828ft 193kts
21-Jun-18 18:40 39.762956 -119.859274 331 14577ft 197kts
21-Jun-18 18:41 39.813121 -119.889001 331 16215ft 201kts
21-Jun-18 18:42 39.864316 -119.918810 331 17744ft 204kts
21-Jun-18 18:43 39.916646 -119.949168 329 19035ft 215kts
21-Jun-18 18:44 39.974524 -119.993022 325 19528ft 252kts
21-Jun-18 18:45 40.027539 -120.033484 323 21704ft 213kts
21-Jun-18 18:46 40.078395 -120.072577 323 22909ft 214kts
21-Jun-18 18:47 40.129658 -120.112035 322 24008ft 217kts
21-Jun-18 18:48 40.181811 -120.152236 322 25034ft 219kts
21-Jun-18 18:49 40.234607 -120.193007 322 25983ft 222kts
21-Jun-18 18:50 40.288055 -120.234357 321 26889ft 224kts
21-Jun-18 18:51 40.341842 -120.276035 321 27725ft 227kts
21-Jun-18 18:52 40.397291 -120.319159 321 28138ft 245kts
21-Jun-18 18:53 40.459262 -120.367429 322 28136ft 273kts
21-Jun-18 18:54 40.526905 -120.420149 323 28133ft 293kts
21-Jun-18 18:55 40.598389 -120.475987 323 28133ft 306kts
21-Jun-18 18:56 40.672757 -120.534244 323 28135ft 315kts
21-Jun-18 18:57 40.748746 -120.593938 323 28132ft 321kts
21-Jun-18 18:58 40.825621 -120.654499 323 28136ft 325kts
21-Jun-18 18:59 40.903473 -120.715984 323 28151ft 328kts
21-Jun-18 19:00 40.981687 -120.777959 323 28157ft 330kts
21-Jun-18 19:01 41.059660 -120.839918 324 28154ft 316kts
21-Jun-18 19:02 41.133920 -120.899104 325 28156ft 319kts
21-Jun-18 19:03 41.209578 -120.959475 325 28156ft 319kts
21-Jun-18 19:04 41.284837 -121.019713 324 28156ft 315kts
21-Jun-18 19:05 41.358965 -121.079262 324 28155ft 310kts
21-Jun-18 19:06 41.432108 -121.138160 324 28154ft 306kts
21-Jun-18 19:07 41.504148 -121.196359 324 28154ft 300kts
21-Jun-18 19:08 41.575280 -121.253975 324 28156ft 300kts
21-Jun-18 19:09 41.645883 -121.311302 324 28160ft 299kts
21-Jun-18 19:10 41.716808 -121.369033 324 28166ft 300kts
21-Jun-18 19:11 41.787408 -121.426652 324 28172ft 299kts
21-Jun-18 19:12 41.858300 -121.484650 324 28165ft 300kts
21-Jun-18 19:13 41.929191 -121.542811 323 28167ft 300kts
21-Jun-18 19:14 41.999816 -121.600893 324 28165ft 300kts
21-Jun-18 19:15 42.070884 -121.659446 321 28173ft 304kts
21-Jun-18 19:16 42.141019 -121.721374 303 28175ft 294kts
21-Jun-18 19:17 42.165693 -121.824660 283 28176ft 290kts
21-Jun-18 19:18 42.184135 -121.929940 282 28175ft 291kts
21-Jun-18 19:19 42.201255 -122.036171 281 28166ft 290kts
21-Jun-18 19:20 42.217914 -122.142678 281 28163ft 290kts
21-Jun-18 19:21 42.234301 -122.248980 281 28147ft 290kts
21-Jun-18 19:22 42.265581 -122.348906 294 28114ft 291kts
21-Jun-18 19:23 42.302387 -122.446338 295 28080ft 292kts
21-Jun-18 19:24 42.339467 -122.543644 295 28065ft 292kts
21-Jun-18 19:25 42.376449 -122.640739 295 28058ft 293kts
21-Jun-18 19:26 42.413342 -122.737852 294 28066ft 292kts
21-Jun-18 19:27 42.450268 -122.835336 294 28066ft 292kts
21-Jun-18 19:28 42.491441 -122.929899 305 27751ft 302kts
21-Jun-18 19:29 42.543171 -123.014732 306 26250ft 290kts
21-Jun-18 19:30 42.594463 -123.098036 307 24746ft 287kts
21-Jun-18 19:31 42.644972 -123.179939 307 24051ft 285kts
21-Jun-18 19:32 42.695505 -123.262008 307 22527ft 278kts
21-Jun-18 19:33 42.744718 -123.342171 307 21016ft 276kts
21-Jun-18 19:34 42.793513 -123.421856 307 19494ft 272kts
21-Jun-18 19:35 42.841428 -123.500318 307 17979ft 269kts
21-Jun-18 19:36 42.888879 -123.578227 307 16460ft 266kts
21-Jun-18 19:37 42.935682 -123.655276 307 14946ft 263kts
21-Jun-18 19:38 42.981827 -123.731427 307 13454ft 260kts
21-Jun-18 19:39 43.027467 -123.806940 308 11956ft 256kts
21-Jun-18 19:40 43.072138 -123.881032 308 10454ft 249kts
21-Jun-18 19:41 43.115030 -123.952381 308 8861ft 242kts
21-Jun-18 19:42 43.156505 -124.021552 309 6870ft 232kts
21-Jun-18 19:43 43.196816 -124.088918 310 4869ft 226kts
21-Jun-18 19:44 43.242584 -124.130718 27 3996ft 223kts
21-Jun-18 19:45 43.269796 -124.052732 63 3991ft 232kts
21-Jun-18 19:46 43.311714 -123.989261 30 3991ft 226kts
21-Jun-18 19:47 43.367966 -123.952220 14 3991ft 225kts
21-Jun-18 19:48 43.412477 -123.984642 270 3012ft 222kts
21-Jun-18 19:49 43.413148 -124.069306 274 2640ft 237kts
21-Jun-18 19:50 43.415340 -124.161405 274 1797ft 238kts
21-Jun-18 19:51 43.422465 -124.246962 243 1266ft 239kts
21-Jun-18 19:52 43.370627 -124.238486 146 2096ft 192kts
21-Jun-18 19:53 43.389898 -124.224096 356 1485ft 127kts
21-Jun-18 19:54 43.417257 -124.244641 330 361ft 100kts
21-Jun-18 19:55 43.409784 -124.257271 143 763ft 113kts
21-Jun-18 19:56 43.399416 -124.230388 2 978ft 107kts
21-Jun-18 19:57 43.423862 -124.254569 258 534ft 103kts
21-Jun-18 19:58 43.396731 -124.243785 142 1026ft 111kts
21-Jun-18 19:59 43.407660 -124.236460 330 193ft 111kts
21-Jun-18 20:00 43.417499 -124.244880 254 20ft 11kts
21-Jun-18 20:01 43.417030 -124.246131 253 20ft 0kts
21-Jun-18 20:02 43.417030 -124.246132 253 20ft 0kts
21-Jun-18 20:03 43.416919 -124.247183 277 20ft 0kts
21-Jun-18 20:04 43.416919 -124.247183 277 20ft 0kts
21-Jun-18 20:05 43.416919 -124.247183 277 20ft 0kts

Navigation Log

Ident Type
Flight plan parsing failed, navigation log unavailable